createdAt,value
2023-11-25T00:01:20.890Z,97584.72
2023-11-25T00:03:49.769Z,97593.09
2023-11-25T00:06:21.760Z,97585.59
2023-11-25T00:08:50.685Z,97586.06
2023-11-25T00:11:28.128Z,97590.44
2023-11-25T00:13:59.839Z,97582.56
2023-11-25T00:16:29.106Z,97586.22
2023-11-25T00:18:58.110Z,97598.53
2023-11-25T00:21:41.035Z,97615.56
2023-11-25T00:24:10.374Z,97625.75
2023-11-25T00:26:39.176Z,97630.03
2023-11-25T00:29:10.285Z,97639.47
2023-11-25T00:31:39.427Z,97634.53
2023-11-25T00:34:08.601Z,97628.72
2023-11-25T00:36:37.426Z,97608.22
2023-11-25T00:39:07.911Z,97612.00
2023-11-25T00:41:36.647Z,97628.50
2023-11-25T00:44:05.981Z,97633.88
2023-11-25T00:46:35.041Z,97649.78
2023-11-25T00:49:05.670Z,97638.72
2023-11-25T00:51:34.500Z,97632.63
2023-11-25T00:54:03.655Z,97640.78
2023-11-25T00:56:33.864Z,97656.88
2023-11-25T00:59:03.270Z,97662.50
2023-11-25T01:01:32.135Z,97662.16
2023-11-25T01:04:01.487Z,97659.94
2023-11-25T01:06:31.174Z,97668.88
2023-11-25T01:09:00.232Z,97666.75
2023-11-25T01:11:28.982Z,97663.25
2023-11-25T01:13:59.507Z,97659.94
2023-11-25T01:16:28.433Z,97659.66
2023-11-25T01:18:57.746Z,97660.78
2023-11-25T01:21:27.049Z,97659.78
2023-11-25T01:23:56.607Z,97651.22
2023-11-25T01:26:25.472Z,97652.81
2023-11-25T01:28:54.638Z,97651.47
2023-11-25T01:31:24.896Z,97652.09
2023-11-25T01:33:54.007Z,97651.56
2023-11-25T01:36:22.930Z,97642.56
2023-11-25T01:38:51.984Z,97630.44
2023-11-25T01:41:20.961Z,97626.25
2023-11-25T01:43:51.222Z,97625.88
2023-11-25T01:46:33.504Z,97617.59
2023-11-25T01:49:02.804Z,97615.03
2023-11-25T01:51:33.003Z,97608.78
2023-11-25T01:54:05.102Z,97607.25
2023-11-25T01:56:35.772Z,97599.00
2023-11-25T01:59:08.122Z,97583.13
2023-11-25T02:01:38.662Z,97595.56
2023-11-25T02:04:09.112Z,97587.84
2023-11-25T02:06:38.101Z,97580.47
2023-11-25T02:09:07.196Z,97577.84
2023-11-25T02:11:57.097Z,97574.53
2023-11-25T02:14:27.431Z,97568.75
2023-11-25T02:16:58.591Z,97557.97
2023-11-25T02:19:30.092Z,97565.50
2023-11-25T02:21:59.440Z,97572.44
2023-11-25T02:24:31.392Z,97579.09
2023-11-25T02:27:01.360Z,97563.41
2023-11-25T02:29:32.348Z,97558.16
2023-11-25T02:32:01.869Z,97568.59
2023-11-25T02:34:31.134Z,97557.44
2023-11-25T02:36:59.941Z,97568.63
2023-11-25T02:39:30.442Z,97565.38
2023-11-25T02:41:59.548Z,97556.50
2023-11-25T02:44:29.058Z,97555.94
2023-11-25T02:46:58.073Z,97561.34
2023-11-25T02:49:27.822Z,97574.94
2023-11-25T02:51:56.738Z,97572.63
2023-11-25T02:54:26.000Z,97574.44
2023-11-25T02:56:56.233Z,97574.38
2023-11-25T02:59:25.441Z,97572.06
2023-11-25T03:01:54.400Z,97572.81
2023-11-25T03:04:28.175Z,97570.56
2023-11-25T03:06:59.274Z,97565.25
2023-11-25T03:09:29.252Z,97552.00
2023-11-25T03:11:59.973Z,97547.50
2023-11-25T03:14:29.098Z,97540.47
2023-11-25T03:16:58.310Z,97545.31
2023-11-25T03:19:27.553Z,97546.28
2023-11-25T03:21:56.311Z,97549.53
2023-11-25T03:24:25.546Z,97554.69
2023-11-25T03:26:54.317Z,97564.38
2023-11-25T03:29:26.136Z,97570.47
2023-11-25T03:31:54.886Z,97578.34
2023-11-25T03:34:24.090Z,97577.66
2023-11-25T03:36:53.018Z,97576.50
2023-11-25T03:39:22.919Z,97584.44
2023-11-25T03:41:51.971Z,97581.88
2023-11-25T03:44:20.983Z,97594.81
2023-11-25T03:46:51.214Z,97583.81
2023-11-25T03:49:21.849Z,97592.25
2023-11-25T03:51:51.668Z,97590.66
2023-11-25T03:54:20.690Z,97605.28
2023-11-25T03:56:49.595Z,97614.78
2023-11-25T03:59:18.707Z,97616.44
2023-11-25T04:01:48.256Z,97624.09
2023-11-25T04:04:19.004Z,97622.25
2023-11-25T04:06:49.711Z,97625.03
2023-11-25T04:09:18.907Z,97618.06
2023-11-25T04:11:47.724Z,97618.03
2023-11-25T04:14:17.425Z,97626.59
2023-11-25T04:16:46.249Z,97628.25
2023-11-25T04:19:15.826Z,97614.66
2023-11-25T04:21:48.884Z,97614.81
2023-11-25T04:24:19.025Z,97610.53
2023-11-25T04:26:49.130Z,97616.41
2023-11-25T04:29:18.175Z,97617.16
2023-11-25T04:31:46.930Z,97614.56
2023-11-25T04:34:16.169Z,97612.16
2023-11-25T04:36:46.595Z,97605.91
2023-11-25T04:39:15.667Z,97606.00
2023-11-25T04:41:44.607Z,97609.53
2023-11-25T04:44:13.668Z,97606.94
2023-11-25T04:46:42.647Z,97599.50
2023-11-25T04:49:11.833Z,97608.25
2023-11-25T04:51:40.771Z,97595.19
2023-11-25T04:54:11.226Z,97598.56
2023-11-25T04:56:39.959Z,97598.34
2023-11-25T04:59:09.061Z,97591.16
2023-11-25T05:01:38.789Z,97587.94
2023-11-25T05:04:08.605Z,97594.00
2023-11-25T05:06:37.659Z,97612.13
2023-11-25T05:09:07.748Z,97612.81
2023-11-25T05:11:39.051Z,97618.22
2023-11-25T05:14:08.180Z,97608.63
2023-11-25T05:16:36.934Z,97605.97
2023-11-25T05:19:06.205Z,97600.91
2023-11-25T05:21:34.949Z,97578.59
2023-11-25T05:24:04.655Z,97547.78
2023-11-25T05:26:33.351Z,97538.66
2023-11-25T05:29:03.837Z,97547.91
2023-11-25T05:31:34.591Z,97558.97
2023-11-25T05:34:04.977Z,97577.31
2023-11-25T05:36:34.186Z,97568.88
2023-11-25T05:39:03.663Z,97562.72
2023-11-25T05:41:32.661Z,97539.91
2023-11-25T05:44:06.011Z,97539.03
2023-11-25T05:46:35.724Z,97537.50
2023-11-25T05:49:05.868Z,97529.88
2023-11-25T05:51:35.318Z,97534.16
2023-11-25T05:54:04.619Z,97555.00
2023-11-25T05:56:33.469Z,97587.03
2023-11-25T05:59:04.367Z,97588.34
2023-11-25T06:01:33.092Z,97579.19
2023-11-25T06:04:02.411Z,97559.44
2023-11-25T06:06:32.006Z,97550.03
2023-11-25T06:09:01.763Z,97546.50
2023-11-25T06:11:30.680Z,97544.63
2023-11-25T06:13:59.664Z,97549.09
2023-11-25T06:16:30.545Z,97567.09
2023-11-25T06:18:59.854Z,97579.28
2023-11-25T06:21:28.732Z,97587.16
2023-11-25T06:23:57.815Z,97587.38
2023-11-25T06:26:26.652Z,97583.88
2023-11-25T06:28:56.565Z,97576.03
2023-11-25T06:31:25.447Z,97583.63
2023-11-25T06:33:58.357Z,97588.59
2023-11-25T06:36:27.126Z,97606.59
2023-11-25T06:38:56.213Z,97603.97
2023-11-25T06:41:26.743Z,97616.19
2023-11-25T06:43:55.951Z,97611.91
2023-11-25T06:46:24.906Z,97612.59
2023-11-25T06:48:55.436Z,97601.63
2023-11-25T06:51:24.597Z,97592.59
2023-11-25T06:53:53.608Z,97580.19
2023-11-25T06:56:23.399Z,97583.97
2023-11-25T06:58:53.799Z,97588.50
2023-11-25T07:01:23.218Z,97592.00
2023-11-25T07:03:55.822Z,97586.88
2023-11-25T07:06:24.867Z,97596.22
2023-11-25T07:08:54.810Z,97602.03
2023-11-25T07:11:24.584Z,97609.34
2023-11-25T07:13:55.354Z,97617.69
2023-11-25T07:16:24.285Z,97615.66
2023-11-25T07:18:54.122Z,97602.41
2023-11-25T07:21:25.453Z,97603.50
2023-11-25T07:23:54.905Z,97607.59
2023-11-25T07:26:23.925Z,97608.13
2023-11-25T07:28:52.987Z,97610.84
2023-11-25T07:31:24.069Z,97616.28
2023-11-25T07:33:53.588Z,97619.09
2023-11-25T07:36:23.817Z,97632.34
2023-11-25T07:38:52.892Z,97636.06
2023-11-25T07:41:22.218Z,97637.75
2023-11-25T07:43:52.524Z,97626.88
2023-11-25T07:46:21.385Z,97629.31
2023-11-25T07:48:50.591Z,97625.91
2023-11-25T07:51:19.934Z,97641.75
2023-11-25T07:53:50.377Z,97636.69
2023-11-25T07:56:19.201Z,97631.09
2023-11-25T07:58:48.300Z,97622.03
2023-11-25T08:01:17.853Z,97605.53
2023-11-25T08:03:47.042Z,97590.41
2023-11-25T08:06:17.117Z,97591.22
2023-11-25T08:08:46.817Z,97586.22
2023-11-25T08:11:25.139Z,97583.13
2023-11-25T08:13:54.891Z,97599.06
2023-11-25T08:16:23.732Z,97594.13
2023-11-25T08:18:53.138Z,97588.31
2023-11-25T08:21:22.144Z,97592.69
2023-11-25T08:23:51.307Z,97591.94
2023-11-25T08:26:21.138Z,97591.47
2023-11-25T08:28:52.566Z,97589.41
2023-11-25T08:31:22.324Z,97588.28
2023-11-25T08:33:51.452Z,97576.09
2023-11-25T08:36:20.319Z,97581.53
2023-11-25T08:38:52.541Z,97581.34
2023-11-25T08:41:21.436Z,97566.84
2023-11-25T08:43:51.924Z,97558.06
2023-11-25T08:46:21.578Z,97574.22
2023-11-25T08:48:51.808Z,97581.16
2023-11-25T08:51:20.508Z,97583.56
2023-11-25T08:53:51.564Z,97586.03
2023-11-25T08:56:22.154Z,97578.50
2023-11-25T08:59:01.119Z,97587.13
2023-11-25T09:01:40.449Z,97584.13
2023-11-25T09:04:09.584Z,97580.72
2023-11-25T09:06:40.802Z,97589.38
2023-11-25T09:09:10.011Z,97602.56
2023-11-25T09:11:38.961Z,97594.25
2023-11-25T09:14:09.442Z,97597.56
2023-11-25T09:16:38.281Z,97584.56
2023-11-25T09:19:07.384Z,97577.50
2023-11-25T09:21:36.113Z,97596.06
2023-11-25T09:24:05.698Z,97608.38
2023-11-25T09:26:34.730Z,97617.56
2023-11-25T09:29:03.928Z,97612.44
2023-11-25T09:31:34.825Z,97613.69
2023-11-25T09:34:04.625Z,97618.84
2023-11-25T09:36:33.541Z,97625.78
2023-11-25T09:39:04.981Z,97612.44
2023-11-25T09:41:34.490Z,97616.75
2023-11-25T09:44:07.053Z,97619.50
2023-11-25T09:46:38.180Z,97596.25
2023-11-25T09:49:07.742Z,97586.91
2023-11-25T09:51:37.614Z,97582.72
2023-11-25T09:54:09.285Z,97585.81
2023-11-25T09:56:38.931Z,97580.78
2023-11-25T09:59:08.794Z,97584.25
2023-11-25T10:01:39.776Z,97594.00
2023-11-25T10:04:10.066Z,97588.69
2023-11-25T10:06:38.840Z,97592.13
2023-11-25T10:09:11.158Z,97596.13
2023-11-25T10:11:44.142Z,97595.72
2023-11-25T10:14:15.381Z,97593.63
2023-11-25T10:16:47.337Z,97576.66
2023-11-25T10:19:21.707Z,97568.00
2023-11-25T10:21:51.624Z,97558.25
2023-11-25T10:24:22.578Z,97561.69
2023-11-25T10:26:52.488Z,97558.50
2023-11-25T10:29:21.861Z,97558.81
2023-11-25T10:31:58.329Z,97563.09
2023-11-25T10:34:28.133Z,97556.09
2023-11-25T10:36:57.885Z,97553.13
2023-11-25T10:39:27.747Z,97554.75
2023-11-25T10:41:56.591Z,97538.00
2023-11-25T10:44:28.336Z,97541.56
2023-11-25T10:46:59.072Z,97533.84
2023-11-25T10:49:31.840Z,97527.97
2023-11-25T10:52:05.256Z,97539.69
2023-11-25T10:54:37.029Z,97530.66
2023-11-25T10:57:06.941Z,97544.63
2023-11-25T10:59:36.650Z,97527.59
2023-11-25T11:02:13.680Z,97530.69
2023-11-25T11:04:51.046Z,97512.50
2023-11-25T11:07:22.407Z,97505.41
2023-11-25T11:09:54.223Z,97509.09
2023-11-25T11:12:30.251Z,97500.69
2023-11-25T11:15:07.624Z,97479.63
2023-11-25T11:17:48.716Z,97478.41
2023-11-25T11:20:20.216Z,97461.75
2023-11-25T11:22:49.144Z,97455.84
2023-11-25T11:25:25.564Z,97443.03
2023-11-25T11:28:02.589Z,97452.13
2023-11-25T11:30:43.289Z,97453.50
2023-11-25T11:33:15.960Z,97464.44
2023-11-25T11:35:45.746Z,97469.09
2023-11-25T11:38:27.817Z,97486.72
2023-11-25T11:41:00.702Z,97502.47
2023-11-25T11:43:30.277Z,97497.56
2023-11-25T11:45:59.700Z,97478.84
2023-11-25T11:48:32.662Z,97488.53
2023-11-25T11:51:01.742Z,97499.56
2023-11-25T11:53:30.541Z,97509.94
2023-11-25T11:56:00.985Z,97508.06
2023-11-25T11:58:31.955Z,97513.25
2023-11-25T12:01:10.981Z,97516.97
2023-11-25T12:03:41.482Z,97507.75
2023-11-25T12:06:16.523Z,97519.75
2023-11-25T12:08:46.157Z,97524.84
2023-11-25T12:11:15.916Z,97529.44
2023-11-25T12:13:45.833Z,97518.44
2023-11-25T12:16:15.621Z,97519.56
2023-11-25T12:18:45.870Z,97515.94
2023-11-25T12:21:15.073Z,97514.94
2023-11-25T12:23:49.845Z,97503.38
2023-11-25T12:26:24.237Z,97505.19
2023-11-25T12:28:53.402Z,97499.97
2023-11-25T12:31:22.855Z,97502.84
2023-11-25T12:33:53.048Z,97492.13
2023-11-25T12:36:23.430Z,97482.88
2023-11-25T12:38:52.430Z,97473.94
2023-11-25T12:41:22.873Z,97481.09
2023-11-25T12:44:11.170Z,97508.63
2023-11-25T12:46:41.777Z,97517.19
2023-11-25T12:49:22.596Z,97515.63
2023-11-25T12:51:52.494Z,97521.41
2023-11-25T12:54:21.979Z,97504.41
2023-11-25T12:56:53.503Z,97494.81
2023-11-25T12:59:24.786Z,97499.63
2023-11-25T13:01:53.974Z,97498.47
2023-11-25T13:04:27.270Z,97501.78
2023-11-25T13:07:01.153Z,97488.22
2023-11-25T13:09:30.090Z,97492.91
2023-11-25T13:12:00.078Z,97500.88
2023-11-25T13:14:29.624Z,97502.75
2023-11-25T13:16:59.282Z,97504.25
2023-11-25T13:19:29.517Z,97501.19
2023-11-25T13:21:58.696Z,97501.94
2023-11-25T13:24:27.507Z,97500.13
2023-11-25T13:26:56.639Z,97484.44
2023-11-25T13:29:25.461Z,97486.22
2023-11-25T13:31:54.600Z,97482.75
2023-11-25T13:34:23.407Z,97468.16
2023-11-25T13:36:54.318Z,97463.38
2023-11-25T13:39:24.645Z,97462.16
2023-11-25T13:41:53.760Z,97460.09
2023-11-25T13:44:22.532Z,97454.81
2023-11-25T13:46:51.872Z,97472.44
2023-11-25T13:49:20.652Z,97467.84
2023-11-25T13:51:49.733Z,97473.38
2023-11-25T13:54:19.959Z,97479.81
2023-11-25T13:56:49.044Z,97480.91
2023-11-25T13:59:18.766Z,97468.84
2023-11-25T14:01:48.516Z,97465.16
2023-11-25T14:04:17.398Z,97480.78
2023-11-25T14:06:46.416Z,97472.63
2023-11-25T14:09:18.903Z,97466.38
2023-11-25T14:11:49.836Z,97479.69
2023-11-25T14:14:18.811Z,97479.44
2023-11-25T14:16:49.886Z,97468.19
2023-11-25T14:19:19.550Z,97466.47
2023-11-25T14:21:48.728Z,97461.38
2023-11-25T14:24:18.126Z,97472.91
2023-11-25T14:26:47.706Z,97476.31
2023-11-25T14:29:18.834Z,97486.72
2023-11-25T14:31:47.977Z,97490.44
2023-11-25T14:34:16.843Z,97492.41
2023-11-25T14:36:47.378Z,97486.94
2023-11-25T14:39:19.764Z,97479.38
2023-11-25T14:41:50.357Z,97464.72
2023-11-25T14:44:21.090Z,97472.13
2023-11-25T14:46:52.679Z,97469.44
2023-11-25T14:49:21.683Z,97465.56
2023-11-25T14:51:50.835Z,97463.16
2023-11-25T14:54:19.855Z,97471.31
2023-11-25T14:56:49.082Z,97474.66
2023-11-25T14:59:19.538Z,97461.50
2023-11-25T15:01:50.091Z,97473.22
2023-11-25T15:04:18.970Z,97475.09
2023-11-25T15:06:48.135Z,97484.50
2023-11-25T15:09:18.710Z,97491.94
2023-11-25T15:11:47.914Z,97494.69
2023-11-25T15:14:16.763Z,97497.38
2023-11-25T15:16:46.395Z,97487.88
2023-11-25T15:19:17.215Z,97483.47
2023-11-25T15:21:46.359Z,97498.28
2023-11-25T15:24:17.949Z,97488.59
2023-11-25T15:26:47.168Z,97505.50
2023-11-25T15:29:16.770Z,97493.38
2023-11-25T15:31:47.544Z,97492.47
2023-11-25T15:34:19.032Z,97495.53
2023-11-25T15:36:48.135Z,97492.44
2023-11-25T15:39:17.906Z,97490.84
2023-11-25T15:41:47.403Z,97498.03
2023-11-25T15:44:16.592Z,97495.16
2023-11-25T15:46:46.121Z,97502.00
2023-11-25T15:49:14.892Z,97510.84
2023-11-25T15:51:45.690Z,97507.56
2023-11-25T15:54:14.434Z,97509.28
2023-11-25T15:56:43.592Z,97505.38
2023-11-25T15:59:13.726Z,97515.25
2023-11-25T16:01:42.987Z,97512.53
2023-11-25T16:04:11.844Z,97509.53
2023-11-25T16:06:41.074Z,97508.72
2023-11-25T16:09:11.314Z,97507.97
2023-11-25T16:11:40.538Z,97509.56
2023-11-25T16:14:10.120Z,97500.63
2023-11-25T16:16:39.501Z,97509.03
2023-11-25T16:19:08.338Z,97511.69
2023-11-25T16:21:38.043Z,97516.84
2023-11-25T16:24:08.600Z,97503.06
2023-11-25T16:26:39.275Z,97504.88
2023-11-25T16:29:08.404Z,97505.53
2023-11-25T16:31:37.865Z,97508.44
2023-11-25T16:34:06.758Z,97503.06
2023-11-25T16:36:37.261Z,97510.25
2023-11-25T16:39:06.817Z,97508.97
2023-11-25T16:41:35.838Z,97531.63
2023-11-25T16:44:06.689Z,97510.06
2023-11-25T16:46:35.832Z,97516.09
2023-11-25T16:49:08.923Z,97491.47
2023-11-25T16:51:40.105Z,97516.75
2023-11-25T16:54:09.145Z,97516.38
2023-11-25T16:56:38.280Z,97513.44
2023-11-25T16:59:08.544Z,97530.00
2023-11-25T17:01:39.289Z,97540.91
2023-11-25T17:04:08.426Z,97550.47
2023-11-25T17:06:38.127Z,97530.34
2023-11-25T17:09:07.361Z,97551.63
2023-11-25T17:11:36.580Z,97556.09
2023-11-25T17:14:05.830Z,97552.50
2023-11-25T17:19:06.157Z,97554.19
2023-11-25T17:21:35.213Z,97540.69
2023-11-25T17:24:05.114Z,97569.47
2023-11-25T17:26:34.277Z,97575.06
2023-11-25T17:29:03.694Z,97590.03
2023-11-25T17:31:33.401Z,97592.19
2023-11-25T17:34:03.819Z,97608.81
2023-11-25T17:36:34.028Z,97592.22
2023-11-25T17:39:02.821Z,97595.63
2023-11-25T17:41:31.870Z,97604.19
2023-11-25T17:44:01.865Z,97601.19
2023-11-25T17:46:31.262Z,97601.84
2023-11-25T17:49:00.025Z,97603.53
2023-11-25T17:51:32.690Z,97623.38
2023-11-25T17:54:01.708Z,97615.72
2023-11-25T17:56:30.902Z,97628.22
2023-11-25T17:58:59.817Z,97620.88
2023-11-25T18:01:28.963Z,97626.97
2023-11-25T18:03:58.286Z,97638.81
2023-11-25T18:06:27.405Z,97629.31
2023-11-25T18:08:57.673Z,97641.06
2023-11-25T18:11:27.003Z,97632.19
2023-11-25T18:13:55.821Z,97635.13
2023-11-25T18:16:24.930Z,97636.84
2023-11-25T18:18:53.979Z,97636.78
2023-11-25T18:21:23.389Z,97628.53
2023-11-25T18:23:52.099Z,97646.56
2023-11-25T18:26:22.599Z,97638.78
2023-11-25T18:28:52.315Z,97652.53
2023-11-25T18:31:21.706Z,97639.22
2023-11-25T18:33:50.640Z,97658.25
2023-11-25T18:36:19.885Z,97649.59
2023-11-25T18:38:48.681Z,97638.25
2023-11-25T18:41:17.787Z,97639.94
2023-11-25T18:43:48.035Z,97661.69
2023-11-25T18:46:17.145Z,97653.81
2023-11-25T18:48:46.082Z,97658.31
2023-11-25T18:51:15.178Z,97651.94
2023-11-25T18:53:43.941Z,97649.41
2023-11-25T18:56:13.273Z,97652.63
2023-11-25T18:58:43.505Z,97653.63
2023-11-25T19:01:14.661Z,97658.16
2023-11-25T19:03:43.760Z,97669.16
2023-11-25T19:06:12.900Z,97654.28
2023-11-25T19:08:41.776Z,97665.94
2023-11-25T19:11:10.850Z,97647.16
2023-11-25T19:13:39.911Z,97661.53
2023-11-25T19:16:11.640Z,97654.53
2023-11-25T19:18:43.767Z,97653.41
2023-11-25T19:21:13.554Z,97653.66
2023-11-25T19:23:42.455Z,97650.72
2023-11-25T19:26:11.537Z,97650.25
2023-11-25T19:28:40.378Z,97649.34
2023-11-25T19:31:09.499Z,97663.34
2023-11-25T19:33:38.395Z,97666.78
2023-11-25T19:36:10.298Z,97667.50
2023-11-25T19:38:39.233Z,97669.53
2023-11-25T19:41:08.822Z,97684.97
2023-11-25T19:43:37.602Z,97685.97
2023-11-25T19:46:06.962Z,97708.25
2023-11-25T19:48:37.175Z,97705.75
2023-11-25T19:51:08.418Z,97695.34
2023-11-25T19:53:50.009Z,97716.09
2023-11-25T19:56:21.434Z,97698.84
2023-11-25T19:58:50.388Z,97708.13
2023-11-25T20:01:20.046Z,97691.75
2023-11-25T20:03:49.117Z,97719.34
2023-11-25T20:06:18.347Z,97715.13
2023-11-25T20:08:48.574Z,97702.13
2023-11-25T20:11:17.725Z,97713.22
2023-11-25T20:13:46.576Z,97718.50
2023-11-25T20:16:16.149Z,97719.31
2023-11-25T20:18:45.530Z,97738.31
2023-11-25T20:21:14.628Z,97716.06
2023-11-25T20:23:43.415Z,97739.19
2023-11-25T20:26:13.961Z,97731.53
2023-11-25T20:28:42.754Z,97740.84
2023-11-25T20:31:12.946Z,97739.06
2023-11-25T20:33:42.103Z,97737.22
2023-11-25T20:36:15.063Z,97757.31
2023-11-25T20:38:43.919Z,97743.56
2023-11-25T20:41:14.658Z,97746.00
2023-11-25T20:43:43.468Z,97761.50
2023-11-25T20:46:12.894Z,97754.50
2023-11-25T20:48:42.579Z,97763.28
2023-11-25T20:51:11.692Z,97768.41
2023-11-25T20:53:41.216Z,97771.88
2023-11-25T20:56:10.503Z,97776.34
2023-11-25T20:58:40.875Z,97777.91
2023-11-25T21:01:10.061Z,97784.78
2023-11-25T21:03:39.124Z,97789.16
2023-11-25T21:06:08.942Z,97794.34
2023-11-25T21:08:37.981Z,97789.09
2023-11-25T21:11:07.551Z,97799.38
2023-11-25T21:13:37.082Z,97789.16
2023-11-25T21:16:08.578Z,97802.84
2023-11-25T21:18:39.275Z,97802.94
2023-11-25T21:21:08.924Z,97801.22
2023-11-25T21:23:37.691Z,97816.69
2023-11-25T21:26:07.247Z,97811.47
2023-11-25T21:28:36.011Z,97818.31
2023-11-25T21:31:05.398Z,97813.94
2023-11-25T21:33:35.733Z,97817.16
2023-11-25T21:36:05.064Z,97816.16
2023-11-25T21:38:33.781Z,97817.28
2023-11-25T21:41:02.844Z,97813.63
2023-11-25T21:43:32.064Z,97812.72
2023-11-25T21:46:03.168Z,97818.19
2023-11-25T21:48:32.583Z,97813.13
2023-11-25T21:51:03.631Z,97819.94
2023-11-25T21:53:32.345Z,97817.31
2023-11-25T21:56:01.447Z,97818.03
2023-11-25T21:58:30.257Z,97821.50
2023-11-25T22:00:59.381Z,97816.41
2023-11-25T22:03:32.366Z,97818.19
2023-11-25T22:06:05.090Z,97813.69
2023-11-25T22:08:33.888Z,97817.19
2023-11-25T22:11:03.528Z,97818.03
2023-11-25T22:13:32.790Z,97821.72
2023-11-25T22:16:03.252Z,97816.34
2023-11-25T22:18:31.986Z,97823.22
2023-11-25T22:21:03.315Z,97810.16
2023-11-25T22:23:32.623Z,97822.34
2023-11-25T22:26:06.497Z,97822.44
2023-11-25T22:28:35.290Z,97822.47
2023-11-25T22:31:04.355Z,97822.34
2023-11-25T22:33:33.173Z,97815.66
2023-11-25T22:36:04.231Z,97829.47
2023-11-25T22:38:32.989Z,97819.06
2023-11-25T22:41:02.380Z,97820.88
2023-11-25T22:43:31.130Z,97826.91
2023-11-25T22:46:00.579Z,97821.75
2023-11-25T22:48:29.361Z,97820.78
2023-11-25T22:50:58.543Z,97819.13
2023-11-25T22:53:28.670Z,97821.78
2023-11-25T22:55:57.964Z,97811.38
2023-11-25T22:58:27.250Z,97817.53
2023-11-25T23:01:00.282Z,97819.09
2023-11-25T23:03:29.728Z,97827.59
2023-11-25T23:05:59.212Z,97821.69
2023-11-25T23:08:29.359Z,97821.91
2023-11-25T23:10:58.848Z,97831.41
2023-11-25T23:13:27.626Z,97828.81
2023-11-25T23:15:56.702Z,97827.09
2023-11-25T23:18:26.319Z,97837.44
2023-11-25T23:20:55.825Z,97841.69
2023-11-25T23:23:25.770Z,97849.44
2023-11-25T23:25:57.980Z,97846.03
2023-11-25T23:28:26.733Z,97840.00
2023-11-25T23:30:55.852Z,97833.13
2023-11-25T23:33:24.771Z,97843.41
2023-11-25T23:35:53.825Z,97844.28
2023-11-25T23:38:23.336Z,97845.13
2023-11-25T23:40:53.091Z,97846.84
2023-11-25T23:43:23.287Z,97840.84
2023-11-25T23:45:52.533Z,97827.97
2023-11-25T23:48:21.268Z,97854.59
2023-11-25T23:50:50.264Z,97856.28
2023-11-25T23:53:19.018Z,97856.28
2023-11-25T23:55:48.120Z,97848.56
2023-11-25T23:58:16.918Z,97858.78
